Time;durP1;ratioP1;P1;durP2;ratioP2;P2;SDS_P1;SDS_P2;PMS_P1;PMS_P2;Temp;Humidity;BMP_temperature;BMP_pressure;BME280_temperature;BME280_humidity;BME280_pressure;Samples;Min_cycle;Max_cycle;Signal;HPM_P1;HPM_P2
2022/07/10 00:00:14;;;;;;;1.10;0.90;;;18.20;57.10;;;;;;5115150;28;20476;-71
2022/07/10 00:02:41;;;;;;;1.80;1.03;;;18.10;84.30;;;;;;5116110;28;20456;-70
2022/07/10 00:05:10;;;;;;;1.20;0.90;;;17.90;99.90;;;;;;5116711;28;20844;-70
2022/07/10 00:07:37;;;;;;;1.20;0.90;;;17.90;93.50;;;;;;5116811;28;20453;-71
2022/07/10 00:10:06;;;;;;;1.57;1.07;;;17.90;84.70;;;;;;5116540;28;20448;-70
2022/07/10 00:12:33;;;;;;;1.40;1.00;;;17.90;95.80;;;;;;5115097;28;20472;-70
2022/07/10 00:15:00;;;;;;;1.00;0.90;;;18.00;85.10;;;;;;5114119;28;20501;-70
2022/07/10 00:17:27;;;;;;;1.30;1.00;;;18.00;83.50;;;;;;5113682;28;20512;-69
2022/07/10 00:19:54;;;;;;;1.50;1.00;;;18.10;60.00;;;;;;5095954;28;20508;-70
2022/07/10 00:22:21;;;;;;;1.37;0.97;;;18.10;41.60;;;;;;5113735;28;20441;-70
2022/07/10 00:24:50;;;;;;;1.10;0.80;;;18.10;43.20;;;;;;5113998;28;20448;-71
2022/07/10 00:27:19;;;;;;;1.10;0.90;;;18.10;41.50;;;;;;5114658;28;20443;-71
2022/07/10 00:29:46;;;;;;;1.30;0.87;;;18.00;29.90;;;;;;5115260;28;20819;-71
2022/07/10 00:32:13;;;;;;;1.10;0.93;;;18.00;44.60;;;;;;5115638;28;20453;-71
2022/07/10 00:34:40;;;;;;;1.30;0.90;;;18.00;56.00;;;;;;5115670;28;20481;-71
2022/07/10 00:37:07;;;;;;;1.13;0.90;;;18.00;40.90;;;;;;5116032;28;20480;-71
2022/07/10 00:39:34;;;;;;;1.10;0.80;;;18.20;31.60;;;;;;5114967;28;20448;-71
2022/07/10 00:42:09;;;;;;;1.20;0.87;;;18.20;22.60;;;;;;5113985;28;20856;-72
2022/07/10 00:44:38;;;;;;;1.30;1.00;;;18.40;1.00;;;;;;5115707;28;20464;-71
2022/07/10 00:47:06;;;;;;;1.20;0.90;;;18.50;1.00;;;;;;5115197;28;20448;-72
2022/07/10 00:49:33;;;;;;;1.50;0.90;;;18.50;1.00;;;;;;5115179;28;20485;-71
2022/07/10 00:52:02;;;;;;;1.93;1.47;;;18.50;1.00;;;;;;5115674;28;20441;-71
2022/07/10 00:54:30;;;;;;;1.20;0.80;;;18.50;1.00;;;;;;5115984;28;20476;-71
2022/07/10 00:56:58;;;;;;;1.27;0.80;;;18.60;1.00;;;;;;5115086;28;20436;-71
2022/07/10 00:59:26;;;;;;;3.77;0.90;;;18.50;1.00;;;;;;5114312;28;20500;-71
2022/07/10 01:01:55;;;;;;;1.13;0.80;;;18.50;1.00;;;;;;5114591;28;20871;-71
2022/07/10 01:04:22;;;;;;;1.07;0.90;;;18.50;1.00;;;;;;5127851;27;20567;-68
2022/07/10 01:06:49;;;;;;;0.90;0.80;;;18.40;1.00;;;;;;5123369;27;20457;-70
2022/07/10 01:09:16;;;;;;;1.00;0.77;;;18.40;1.00;;;;;;5113577;28;20952;-71
2022/07/10 01:11:44;;;;;;;1.10;0.90;;;18.40;1.00;;;;;;5113889;28;20505;-71
2022/07/10 01:14:11;;;;;;;1.53;0.80;;;18.50;1.00;;;;;;5123786;27;20464;-71
2022/07/10 01:16:38;;;;;;;1.00;0.90;;;18.50;1.00;;;;;;5134001;27;20475;-70
2022/07/10 01:19:07;;;;;;;1.53;0.80;;;18.50;1.00;;;;;;5134132;27;20558;-71
2022/07/10 01:21:37;;;;;;;1.20;0.83;;;18.50;1.00;;;;;;5133939;27;20490;-71
2022/07/10 01:24:06;;;;;;;1.30;0.80;;;18.50;1.00;;;;;;5121124;27;21032;-71
2022/07/10 01:26:33;;;;;;;1.20;0.90;;;18.50;1.00;;;;;;5113445;28;20486;-70
2022/07/10 01:29:04;;;;;;;1.50;0.80;;;18.50;1.00;;;;;;5113571;28;20505;-71
2022/07/10 01:31:31;;;;;;;1.27;0.87;;;18.50;1.00;;;;;;5114505;28;20476;-71
2022/07/10 01:34:00;;;;;;;1.70;0.80;;;18.40;1.00;;;;;;5131757;27;20459;-71
2022/07/10 01:36:29;;;;;;;1.03;0.73;;;18.40;1.00;;;;;;5135336;27;20448;-71
2022/07/10 01:38:58;;;;;;;1.57;1.00;;;18.40;1.00;;;;;;5136009;27;20540;-70
2022/07/10 01:41:26;;;;;;;1.30;0.90;;;18.50;1.00;;;;;;5135697;27;20547;-71
2022/07/10 01:43:53;;;;;;;1.43;0.90;;;18.50;1.00;;;;;;5136159;27;20448;-71
2022/07/10 01:46:21;;;;;;;1.07;0.90;;;18.50;1.00;;;;;;5133543;27;20797;-71
2022/07/10 01:48:48;;;;;;;1.20;1.00;;;18.50;1.00;;;;;;5129521;27;20459;-71
2022/07/10 01:51:15;;;;;;;1.00;0.90;;;18.50;1.00;;;;;;5135184;27;20448;-71
2022/07/10 01:53:42;;;;;;;1.30;0.90;;;18.50;1.00;;;;;;5134939;27;20479;-70
2022/07/10 01:56:13;;;;;;;1.43;1.07;;;18.40;1.00;;;;;;5134595;27;20475;-71
2022/07/10 01:58:41;;;;;;;1.10;0.90;;;18.40;1.00;;;;;;5132847;27;20483;-71
2022/07/10 02:01:08;;;;;;;2.33;1.10;;;18.40;1.00;;;;;;5131389;27;20582;-71
2022/07/10 02:06:20;;;;;;;2.47;1.10;;;18.20;1.00;;;;;;5138928;27;20419;-71
2022/07/10 02:08:47;;;;;;;1.63;1.17;;;18.30;1.00;;;;;;5138640;27;20522;-71
2022/07/10 02:11:15;;;;;;;1.50;1.10;;;18.30;1.00;;;;;;5119271;28;20472;-71
2022/07/10 02:13:42;;;;;;;1.77;1.30;;;18.20;1.00;;;;;;5118036;28;20452;-71
2022/07/10 02:16:10;;;;;;;1.73;1.20;;;18.20;1.00;;;;;;5117690;28;20502;-71
2022/07/10 02:18:37;;;;;;;2.67;1.37;;;18.20;1.00;;;;;;5117206;27;20485;-71
2022/07/10 02:21:04;;;;;;;2.40;1.30;;;18.20;1.00;;;;;;5137395;27;20447;-71
2022/07/10 02:23:31;;;;;;;2.40;2.30;;;18.10;1.00;;;;;;5137777;27;20543;-71
2022/07/10 02:25:58;;;;;;;2.10;1.40;;;18.10;1.00;;;;;;5136660;27;20440;-71
2022/07/10 02:28:27;;;;;;;2.33;1.87;;;18.00;1.00;;;;;;5126525;27;20891;-72
2022/07/10 02:30:54;;;;;;;2.83;2.27;;;17.80;1.00;;;;;;5115150;28;20484;-71
2022/07/10 02:33:21;;;;;;;1.90;1.70;;;17.90;1.00;;;;;;5116002;28;20879;-70
2022/07/10 02:35:48;;;;;;;2.40;1.80;;;17.90;1.00;;;;;;5116829;28;20480;-70
2022/07/10 02:38:15;;;;;;;3.63;2.57;;;17.90;1.00;;;;;;5116473;28;20537;-71
2022/07/10 02:40:42;;;;;;;3.50;2.87;;;17.90;1.00;;;;;;5117411;28;20805;-71
2022/07/10 02:43:09;;;;;;;2.53;2.33;;;17.90;1.00;;;;;;5116411;28;20460;-71
2022/07/10 02:45:37;;;;;;;2.60;2.23;;;17.90;3.00;;;;;;5117419;28;20452;-71
2022/07/10 02:48:05;;;;;;;3.10;2.80;;;17.80;14.30;;;;;;5120557;27;20891;-71
2022/07/10 02:50:32;;;;;;;4.80;2.63;;;17.70;25.10;;;;;;5138138;27;20447;-71
2022/07/10 02:52:59;;;;;;;6.20;5.03;;;17.70;24.40;;;;;;5138086;27;20528;-72
2022/07/10 02:55:26;;;;;;;3.97;3.57;;;17.80;20.80;;;;;;5138478;27;20932;-71
2022/07/10 02:57:52;;;;;;;5.13;3.70;;;17.60;33.80;;;;;;5135305;27;20515;-71
2022/07/10 03:00:19;;;;;;;3.33;3.03;;;17.50;52.40;;;;;;5137659;27;20452;-71
2022/07/10 03:02:48;;;;;;;3.57;3.20;;;17.60;47.90;;;;;;5137620;27;20451;-71
2022/07/10 03:05:15;;;;;;;4.10;3.70;;;17.60;39.60;;;;;;5137457;27;20479;-71
2022/07/10 03:07:42;;;;;;;3.47;3.07;;;17.70;29.80;;;;;;5137219;27;20451;-71
2022/07/10 03:10:10;;;;;;;3.20;2.37;;;17.70;25.70;;;;;;5136386;27;20544;-71
2022/07/10 03:12:37;;;;;;;3.67;3.03;;;17.80;23.50;;;;;;5138012;27;20484;-71
2022/07/10 03:15:05;;;;;;;3.17;2.90;;;17.80;17.40;;;;;;5138896;27;20522;-72
2022/07/10 03:17:32;;;;;;;3.40;2.13;;;17.80;19.60;;;;;;5138547;27;20496;-71
2022/07/10 03:20:00;;;;;;;5.50;4.17;;;17.90;14.80;;;;;;5131031;27;20539;-71
2022/07/10 03:22:28;;;;;;;3.50;2.43;;;17.90;11.30;;;;;;5138044;27;20475;-71
2022/07/10 03:24:55;;;;;;;4.90;4.50;;;17.70;29.90;;;;;;5137835;27;20513;-71
2022/07/10 03:27:22;;;;;;;3.53;2.70;;;17.60;42.90;;;;;;5138142;27;20500;-71
2022/07/10 03:29:49;;;;;;;2.97;2.57;;;17.60;42.60;;;;;;5137909;27;20509;-71
2022/07/10 03:32:16;;;;;;;4.50;4.07;;;17.70;30.40;;;;;;5138115;27;20778;-71
2022/07/10 03:34:43;;;;;;;4.33;2.80;;;17.80;25.50;;;;;;5134214;27;20464;-71
2022/07/10 03:37:11;;;;;;;2.33;2.13;;;17.70;25.80;;;;;;5138861;27;20440;-71
2022/07/10 03:39:38;;;;;;;4.17;3.30;;;17.70;30.80;;;;;;5138480;27;20484;-71
2022/07/10 03:42:06;;;;;;;3.27;2.20;;;17.70;25.80;;;;;;5132938;27;20517;-72
2022/07/10 03:44:33;;;;;;;2.40;2.07;;;17.60;26.70;;;;;;5116389;28;20517;-72
2022/07/10 03:47:00;;;;;;;5.00;2.50;;;17.70;24.00;;;;;;5133732;27;20516;-72
2022/07/10 03:49:27;;;;;;;3.70;3.00;;;17.80;14.70;;;;;;5138139;27;20512;-71
2022/07/10 03:51:54;;;;;;;3.27;2.37;;;17.90;10.70;;;;;;5138168;27;20447;-71
2022/07/10 03:54:23;;;;;;;3.60;2.23;;;17.80;11.10;;;;;;5137743;27;20780;-71
2022/07/10 03:59:34;;;;;;;3.53;2.60;;;17.90;5.30;;;;;;5137130;27;20486;-71
2022/07/10 04:02:01;;;;;;;2.67;2.27;;;17.90;6.80;;;;;;5135577;27;20450;-71
2022/07/10 04:04:28;;;;;;;5.30;3.43;;;17.80;14.60;;;;;;5136619;27;20504;-72
2022/07/10 04:06:55;;;;;;;3.87;3.47;;;17.80;15.50;;;;;;5137411;27;20543;-71
2022/07/10 04:09:24;;;;;;;4.53;2.80;;;17.70;24.30;;;;;;5137275;27;20512;-71
2022/07/10 04:11:51;;;;;;;2.73;2.30;;;17.70;25.20;;;;;;5136863;27;20448;-71
2022/07/10 04:14:18;;;;;;;2.80;2.10;;;17.50;44.40;;;;;;5137230;27;20886;-72
2022/07/10 04:16:45;;;;;;;2.80;1.83;;;17.50;48.10;;;;;;5135915;27;20800;-71
2022/07/10 04:19:12;;;;;;;3.70;2.90;;;17.50;53.50;;;;;;5136420;27;20532;-72
2022/07/10 04:21:39;;;;;;;3.60;2.23;;;17.40;58.40;;;;;;5137270;27;20443;-71
2022/07/10 04:24:06;;;;;;;3.00;2.37;;;17.60;50.90;;;;;;5137453;27;20698;-71
2022/07/10 04:26:35;;;;;;;3.03;2.37;;;17.60;41.30;;;;;;5137403;27;20451;-71
2022/07/10 04:29:02;;;;;;;5.13;2.57;;;17.60;45.30;;;;;;5136530;27;20451;-71
2022/07/10 04:31:29;;;;;;;3.70;2.77;;;17.50;49.70;;;;;;5135897;27;20484;-71
2022/07/10 04:33:57;;;;;;;2.60;2.40;;;17.40;51.30;;;;;;5135000;27;20452;-71
2022/07/10 04:36:24;;;;;;;2.43;2.00;;;17.30;65.40;;;;;;5135389;27;20444;-71
2022/07/10 04:38:51;;;;;;;2.10;1.70;;;17.40;65.50;;;;;;5134893;27;20840;-71
2022/07/10 04:41:18;;;;;;;3.17;1.43;;;17.30;49.90;;;;;;5134789;27;20882;-71
2022/07/10 04:43:47;;;;;;;2.70;1.93;;;17.30;52.20;;;;;;5134747;27;20509;-71
2022/07/10 04:46:14;;;;;;;3.50;1.50;;;17.40;48.50;;;;;;5135204;27;20492;-71
2022/07/10 04:48:40;;;;;;;3.07;2.07;;;17.50;36.00;;;;;;5135976;27;20444;-71
2022/07/10 04:51:08;;;;;;;3.40;2.23;;;17.40;41.60;;;;;;5136477;27;20443;-71
2022/07/10 04:53:35;;;;;;;2.10;1.90;;;17.40;41.80;;;;;;5136458;27;20505;-71
2022/07/10 04:56:02;;;;;;;1.97;1.50;;;17.40;37.30;;;;;;5136321;27;20443;-71
2022/07/10 04:58:29;;;;;;;2.47;1.37;;;17.30;37.70;;;;;;5136605;27;20480;-72
2022/07/10 05:00:58;;;;;;;2.33;1.53;;;17.30;41.40;;;;;;5136819;27;20440;-72
2022/07/10 05:03:25;;;;;;;1.43;1.00;;;17.40;32.10;;;;;;5137018;27;20492;-71
2022/07/10 05:05:52;;;;;;;1.50;1.30;;;17.40;18.80;;;;;;5137094;27;20444;-71
2022/07/10 05:08:19;;;;;;;3.20;1.27;;;17.40;16.40;;;;;;5137005;27;20459;-71
2022/07/10 05:10:46;;;;;;;2.50;1.23;;;17.40;13.70;;;;;;5135403;27;20448;-71
2022/07/10 05:13:13;;;;;;;1.90;1.10;;;17.40;2.70;;;;;;5135528;28;20452;-72
2022/07/10 05:15:40;;;;;;;1.50;1.10;;;17.50;1.00;;;;;;5135280;27;20487;-72
2022/07/10 05:18:08;;;;;;;2.00;1.00;;;17.60;1.00;;;;;;5135002;27;20512;-71
2022/07/10 05:20:37;;;;;;;2.90;1.03;;;17.60;1.00;;;;;;5133895;27;20479;-72
2022/07/10 05:23:04;;;;;;;1.80;1.10;;;17.70;1.00;;;;;;5134094;27;20548;-72
2022/07/10 05:25:32;;;;;;;3.33;1.00;;;17.60;1.00;;;;;;5134033;27;20439;-71
2022/07/10 05:27:59;;;;;;;1.53;1.00;;;17.60;1.00;;;;;;5133677;27;20458;-72
2022/07/10 05:30:26;;;;;;;1.10;0.90;;;17.50;1.00;;;;;;5134460;27;20436;-71
2022/07/10 05:32:53;;;;;;;2.60;1.00;;;17.50;1.00;;;;;;5135044;27;20542;-72
2022/07/10 05:35:21;;;;;;;1.07;0.80;;;17.60;1.00;;;;;;5134620;27;20501;-72
2022/07/10 05:37:48;;;;;;;2.70;1.00;;;17.40;1.00;;;;;;5139984;27;20595;-71
2022/07/10 05:40:15;;;;;;;0.93;0.80;;;17.50;1.00;;;;;;5141006;27;20510;-71
2022/07/10 05:42:43;;;;;;;1.57;0.70;;;17.40;1.00;;;;;;5140605;27;20459;-71
2022/07/10 05:45:11;;;;;;;1.10;0.80;;;17.40;1.00;;;;;;5140602;27;20456;-72
2022/07/10 05:47:38;;;;;;;1.10;0.80;;;17.30;1.00;;;;;;5139357;27;20955;-71
2022/07/10 05:50:06;;;;;;;0.87;0.60;;;17.30;1.00;;;;;;5137395;27;20947;-71
2022/07/10 05:52:35;;;;;;;1.40;0.70;;;17.30;1.00;;;;;;5138018;27;20493;-71
2022/07/10 05:55:02;;;;;;;1.33;0.60;;;17.30;1.00;;;;;;5138395;27;20475;-72
2022/07/10 05:57:31;;;;;;;0.80;0.60;;;17.40;1.00;;;;;;5137809;27;20863;-71
2022/07/10 05:59:58;;;;;;;1.00;0.77;;;17.50;1.00;;;;;;5138939;27;20479;-71
2022/07/10 06:02:25;;;;;;;0.80;0.60;;;17.50;1.00;;;;;;5138862;27;20451;-71
2022/07/10 06:04:52;;;;;;;0.97;0.60;;;17.60;1.00;;;;;;5137026;27;20475;-71
2022/07/10 06:07:19;;;;;;;0.90;0.70;;;17.60;1.00;;;;;;5137722;27;20538;-71
2022/07/10 06:09:47;;;;;;;2.50;0.60;;;17.80;1.00;;;;;;5139562;27;20440;-72
2022/07/10 06:12:15;;;;;;;1.33;0.70;;;17.90;99.90;;;;;;5139566;27;20483;-71
2022/07/10 06:14:42;;;;;;;1.17;0.60;;;18.00;1.00;;;;;;5138595;27;20794;-71
2022/07/10 06:17:09;;;;;;;0.90;0.63;;;18.10;99.90;;;;;;5136311;27;20517;-71
2022/07/10 06:19:36;;;;;;;0.77;0.50;;;18.10;1.00;;;;;;5136325;27;21144;-71
2022/07/10 06:24:49;;;;;;;0.90;0.60;;;18.20;99.90;;;;;;5136420;27;20415;-71
2022/07/10 06:27:16;;;;;;;0.70;0.60;;;18.40;1.00;;;;;;5136394;27;20891;-72
2022/07/10 06:29:43;;;;;;;1.77;0.60;;;18.40;1.00;;;;;;5137307;27;20513;-72
2022/07/10 06:32:10;;;;;;;2.13;0.60;;;18.60;99.90;;;;;;5133893;27;21016;-71
2022/07/10 06:34:37;;;;;;;1.10;0.60;;;18.50;1.00;;;;;;5138226;27;20459;-71
2022/07/10 06:37:05;;;;;;;2.67;0.60;;;18.30;1.00;;;;;;5138835;27;20493;-71
2022/07/10 06:39:34;;;;;;;0.90;0.53;;;18.20;1.00;;;;;;5139322;27;20868;-71
2022/07/10 06:42:03;;;;;;;2.33;0.47;;;18.00;99.90;;;;;;5139556;27;20444;-71
2022/07/10 06:44:30;;;;;;;1.00;0.60;;;18.10;1.00;;;;;;5139207;27;20448;-72
2022/07/10 06:49:38;;;;;;;1.00;0.60;;;18.30;1.00;;;;;;5104879;27;20510;-70
2022/07/10 06:52:06;;;;;;;0.90;0.70;;;18.20;1.00;;;;;;5139210;27;20805;-70
2022/07/10 06:54:33;;;;;;;1.00;0.67;;;18.20;59.50;;;;;;5138986;27;20471;-71
2022/07/10 06:57:02;;;;;;;0.77;0.50;;;18.10;1.00;;;;;;5138963;27;20735;-72
2022/07/10 06:59:29;;;;;;;0.83;0.57;;;17.80;99.90;;;;;;5139379;27;20484;-71
2022/07/10 07:01:56;;;;;;;1.83;0.60;;;17.70;1.00;;;;;;5139190;27;20459;-71
2022/07/10 07:04:23;;;;;;;0.70;0.50;;;17.80;99.90;;;;;;5139266;27;20939;-71
2022/07/10 07:06:50;;;;;;;1.30;0.60;;;17.90;99.90;;;;;;5139081;27;20531;-71
2022/07/10 07:09:17;;;;;;;1.10;0.43;;;18.10;99.90;;;;;;5139258;27;20454;-71
2022/07/10 07:11:44;;;;;;;0.77;0.60;;;18.10;99.90;;;;;;5138859;27;20444;-71
2022/07/10 07:14:12;;;;;;;0.70;0.40;;;18.20;99.90;;;;;;5138783;27;20448;-71
2022/07/10 07:16:42;;;;;;;0.80;0.60;;;18.40;1.00;;;;;;5136840;27;20524;-71
2022/07/10 07:19:10;;;;;;;0.60;0.40;;;18.50;1.00;;;;;;5137230;27;20487;-71
2022/07/10 07:24:21;;;;;;;1.10;0.50;;;18.30;1.00;;;;;;5136495;27;20501;-71
2022/07/10 07:26:49;;;;;;;0.80;0.50;;;18.40;1.00;;;;;;5135989;27;20448;-71
2022/07/10 07:29:18;;;;;;;0.60;0.40;;;18.50;1.00;;;;;;5136725;27;20955;-71
2022/07/10 07:31:45;;;;;;;0.90;0.40;;;18.60;1.00;;;;;;5136777;27;20492;-72
2022/07/10 07:34:12;;;;;;;0.67;0.40;;;18.70;1.00;;;;;;5137111;27;20459;-71
2022/07/10 07:36:39;;;;;;;1.00;0.43;;;18.70;1.00;;;;;;5136456;27;20784;-71
2022/07/10 07:39:06;;;;;;;0.83;0.40;;;18.80;99.90;;;;;;5136108;27;20567;-72
2022/07/10 07:41:33;;;;;;;0.60;0.50;;;18.90;99.90;;;;;;5136045;27;20443;-71
2022/07/10 07:44:00;;;;;;;0.83;0.43;;;18.80;99.90;;;;;;5132117;27;20520;-71
2022/07/10 07:46:28;;;;;;;0.70;0.30;;;18.90;99.90;;;;;;5124458;27;20456;-71
2022/07/10 07:48:57;;;;;;;0.60;0.50;;;18.70;99.90;;;;;;5134189;27;20555;-71
2022/07/10 07:51:24;;;;;;;0.83;0.50;;;18.80;99.90;;;;;;5126309;27;20464;-71
2022/07/10 07:53:52;;;;;;;0.60;0.40;;;19.00;99.90;;;;;;5117353;28;20508;-71
2022/07/10 07:56:19;;;;;;;0.70;0.50;;;19.10;99.90;;;;;;5125026;27;20456;-71
2022/07/10 07:58:46;;;;;;;3.13;0.50;;;19.10;99.90;;;;;;5136551;27;20479;-71
2022/07/10 08:01:13;;;;;;;0.80;0.40;;;19.10;99.90;;;;;;5128092;27;20537;-70
2022/07/10 08:03:41;;;;;;;0.60;0.40;;;19.30;99.90;;;;;;5127745;27;20835;-71
2022/07/10 08:06:09;;;;;;;0.70;0.50;;;19.40;99.90;;;;;;5135225;27;20464;-70
2022/07/10 08:08:36;;;;;;;0.50;0.30;;;19.30;1.00;;;;;;5136667;27;20470;-72
2022/07/10 08:11:03;;;;;;;1.00;0.40;;;19.40;1.00;;;;;;5134842;27;20459;-71
2022/07/10 08:13:32;;;;;;;0.60;0.40;;;19.30;1.00;;;;;;5137424;27;20455;-70
2022/07/10 08:15:59;;;;;;;1.63;0.40;;;19.00;1.00;;;;;;5135150;27;20970;-70
2022/07/10 08:18:26;;;;;;;0.60;0.40;;;19.20;1.00;;;;;;5136190;27;20456;-71
2022/07/10 08:20:55;;;;;;;1.70;0.50;;;19.40;1.00;;;;;;5135028;27;20521;-70
2022/07/10 08:23:22;;;;;;;0.50;0.40;;;19.50;1.00;;;;;;5137019;27;20464;-71
2022/07/10 08:25:49;;;;;;;0.60;0.47;;;19.70;1.00;;;;;;5135218;27;20464;-70
2022/07/10 08:28:16;;;;;;;0.50;0.30;;;19.80;1.00;;;;;;5137385;27;20460;-71
2022/07/10 08:30:43;;;;;;;0.43;0.30;;;19.90;1.00;;;;;;5131217;27;20467;-71
2022/07/10 08:33:10;;;;;;;0.93;0.40;;;20.00;1.00;;;;;;5136601;27;20459;-70
2022/07/10 08:35:37;;;;;;;0.73;0.40;;;20.30;1.00;;;;;;5121834;27;21062;-70
2022/07/10 08:38:08;;;;;;;0.90;0.40;;;20.30;1.00;;;;;;5115961;27;20452;-71
2022/07/10 08:40:37;;;;;;;0.53;0.37;;;20.30;1.00;;;;;;5115696;28;20480;-72
2022/07/10 08:43:04;;;;;;;0.60;0.40;;;20.30;1.00;;;;;;5133939;27;20536;-71
2022/07/10 08:45:34;;;;;;;0.77;0.50;;;20.10;1.00;;;;;;5135719;27;20925;-70
2022/07/10 08:48:04;;;;;;;0.53;0.30;;;20.00;1.00;;;;;;5117889;27;20464;-71
2022/07/10 08:50:34;;;;;;;1.07;0.37;;;20.00;1.00;;;;;;5125509;27;20455;-70
2022/07/10 08:53:09;;;;;;;0.80;0.37;;;20.00;1.00;;;;;;5136428;27;20464;-72
2022/07/10 08:55:37;;;;;;;1.50;0.40;;;20.30;1.00;;;;;;5121808;27;20464;-72
2022/07/10 08:58:05;;;;;;;1.13;0.40;;;20.30;1.00;;;;;;5115242;28;20513;-71
2022/07/10 09:00:32;;;;;;;0.60;0.30;;;20.40;1.00;;;;;;5127781;28;20480;-71
2022/07/10 09:02:59;;;;;;;0.60;0.33;;;20.30;1.00;;;;;;5130146;27;20847;-70
2022/07/10 09:05:27;;;;;;;0.60;0.40;;;20.40;1.00;;;;;;5132483;27;20463;-71
2022/07/10 09:07:54;;;;;;;0.50;0.40;;;20.50;1.00;;;;;;5135043;27;20871;-72
2022/07/10 09:10:25;;;;;;;1.47;0.40;;;20.50;1.00;;;;;;5119422;27;20460;-70
2022/07/10 09:12:54;;;;;;;0.50;0.40;;;20.70;1.00;;;;;;5117370;28;20482;-70
2022/07/10 09:15:23;;;;;;;0.50;0.30;;;20.80;1.00;;;;;;5130883;27;20516;-70
2022/07/10 09:17:51;;;;;;;0.47;0.30;;;20.70;1.00;;;;;;5138826;27;20455;-70
2022/07/10 09:20:33;;;;;;;1.23;0.30;;;20.50;1.00;;;;;;5137391;27;20479;-71
2022/07/10 09:23:10;;;;;;;0.70;0.40;;;20.40;1.00;;;;;;5139290;27;20456;-71
2022/07/10 09:25:39;;;;;;;0.60;0.40;;;20.40;1.00;;;;;;5137243;27;20756;-71
2022/07/10 09:28:09;;;;;;;0.50;0.40;;;20.50;1.00;;;;;;5138928;27;20520;-71
2022/07/10 09:30:37;;;;;;;1.80;0.93;;;20.70;1.00;;;;;;5137331;27;20814;-71
2022/07/10 09:33:29;;;;;;;1.10;0.30;;;20.70;1.00;;;;;;5136440;27;20452;-72
2022/07/10 09:36:08;;;;;;;0.70;0.40;;;20.70;1.00;;;;;;5132068;27;20456;-72
2022/07/10 09:38:53;;;;;;;0.80;0.40;;;20.70;1.00;;;;;;5133619;27;20520;-71
2022/07/10 09:41:26;;;;;;;1.47;0.40;;;20.50;1.00;;;;;;5133406;27;20836;-71
2022/07/10 09:43:55;;;;;;;0.90;0.30;;;20.30;1.00;;;;;;5132003;27;20504;-71
2022/07/10 09:46:24;;;;;;;1.03;0.40;;;20.50;1.00;;;;;;5135187;27;20491;-71
2022/07/10 09:49:05;;;;;;;0.50;0.40;;;20.40;1.00;;;;;;5134294;27;20455;-71
2022/07/10 09:51:34;;;;;;;0.40;0.30;;;20.50;1.00;;;;;;5136565;27;20504;-70
2022/07/10 09:54:03;;;;;;;0.63;0.30;;;20.80;1.00;;;;;;5135007;27;20800;-70
2022/07/10 09:56:37;;;;;;;0.70;0.43;;;21.00;1.00;;;;;;5125966;27;20451;-70
2022/07/10 09:59:08;;;;;;;1.43;0.40;;;20.50;1.00;;;;;;5135184;27;20889;-71
2022/07/10 10:01:37;;;;;;;0.53;0.40;;;20.40;1.00;;;;;;5133954;27;20545;-71
2022/07/10 10:04:05;;;;;;;0.53;0.37;;;20.40;1.00;;;;;;5132352;27;20516;-70
2022/07/10 10:06:37;;;;;;;0.77;0.40;;;20.50;1.00;;;;;;5129452;27;20529;-71
2022/07/10 10:09:06;;;;;;;0.63;0.47;;;20.70;1.00;;;;;;5132955;27;20781;-71
2022/07/10 10:11:37;;;;;;;0.70;0.50;;;21.00;1.00;;;;;;5130853;27;20460;-71
2022/07/10 10:14:08;;;;;;;0.60;0.40;;;21.20;1.00;;;;;;5130081;27;20514;-68
2022/07/10 10:16:36;;;;;;;0.97;0.30;;;21.00;1.00;;;;;;5138004;27;20472;-71
2022/07/10 10:21:50;;;;;;;1.73;0.30;;;20.90;1.00;;;;;;5133734;27;20474;-70
2022/07/10 10:24:18;;;;;;;1.30;0.40;;;21.10;1.00;;;;;;5134230;27;20509;-70
2022/07/10 10:26:47;;;;;;;2.40;0.80;;;21.50;1.00;;;;;;5131786;27;20509;-70
2022/07/10 10:29:14;;;;;;;0.70;0.40;;;22.00;1.00;;;;;;5133241;27;20484;-70
2022/07/10 10:31:42;;;;;;;0.70;0.40;;;22.10;1.00;;;;;;5133357;27;20456;-70
2022/07/10 10:34:10;;;;;;;1.50;0.50;;;22.10;1.00;;;;;;5135272;27;20462;-68
2022/07/10 10:36:47;;;;;;;0.50;0.40;;;21.90;1.00;;;;;;5124899;27;20452;-69
2022/07/10 10:39:17;;;;;;;0.70;0.40;;;21.70;1.00;;;;;;5136643;27;20459;-71
2022/07/10 10:41:49;;;;;;;0.57;0.40;;;22.00;1.00;;;;;;5133350;27;20491;-70
2022/07/10 10:44:37;;;;;;;1.20;0.40;;;21.90;1.00;;;;;;5130134;27;20464;-70
2022/07/10 10:47:06;;;;;;;0.63;0.47;;;22.00;1.00;;;;;;5123316;27;20483;-70
2022/07/10 10:50:01;;;;;;;0.47;0.33;;;22.00;1.00;;;;;;5125223;27;20460;-70
2022/07/10 10:52:29;;;;;;;1.00;0.50;;;22.50;1.00;;;;;;5132096;27;20763;-71
2022/07/10 10:55:10;;;;;;;0.93;0.50;;;22.80;1.00;;;;;;5118089;27;20469;-70
2022/07/10 10:57:47;;;;;;;0.90;0.50;;;22.80;1.00;;;;;;5110369;28;20467;-70
2022/07/10 11:00:40;;;;;;;0.87;0.40;;;22.80;1.00;;;;;;5110357;28;20462;-70
2022/07/10 11:03:21;;;;;;;1.20;0.80;;;22.80;1.00;;;;;;5111506;27;20486;-70
2022/07/10 11:05:50;;;;;;;0.50;0.40;;;22.90;1.00;;;;;;5099581;28;20775;-70
2022/07/10 11:08:38;;;;;;;0.40;0.30;;;23.10;1.00;;;;;;5108070;28;20480;-71
2022/07/10 11:11:40;;;;;;;1.30;0.70;;;22.80;1.00;;;;;;5109655;28;20460;-71
2022/07/10 11:14:12;;;;;;;0.67;0.47;;;22.80;1.00;;;;;;5105319;28;20944;-70
2022/07/10 11:16:48;;;;;;;0.60;0.40;;;22.80;1.00;;;;;;5112361;28;20479;-71
2022/07/10 11:19:22;;;;;;;0.57;0.40;;;22.60;1.00;;;;;;5112341;27;20483;-72
2022/07/10 11:22:04;;;;;;;1.00;0.30;;;22.70;1.00;;;;;;5110934;27;20576;-69
2022/07/10 11:25:11;;;;;;;0.57;0.40;;;22.80;1.00;;;;;;5110994;27;20470;-71
2022/07/10 11:28:08;;;;;;;0.40;0.30;;;22.70;1.00;;;;;;5036322;28;20467;-70
2022/07/10 11:30:47;;;;;;;0.60;0.40;;;22.40;1.00;;;;;;5115465;28;20523;-70
2022/07/10 11:33:15;;;;;;;1.00;0.40;;;22.30;1.00;;;;;;5108173;28;20476;-70
2022/07/10 11:35:44;;;;;;;0.60;0.30;;;22.30;1.00;;;;;;5108588;28;20539;-70
2022/07/10 11:38:12;;;;;;;0.40;0.20;;;22.60;1.00;;;;;;5117267;27;20528;-70
2022/07/10 11:40:39;;;;;;;0.50;0.30;;;22.90;1.00;;;;;;5115353;28;20480;-68
2022/07/10 11:43:09;;;;;;;0.73;0.30;;;23.00;1.00;;;;;;5113668;28;20551;-70
2022/07/10 11:45:38;;;;;;;0.50;0.30;;;23.70;1.00;;;;;;5115110;28;20456;-69
2022/07/10 11:48:08;;;;;;;0.40;0.20;;;24.00;1.00;;;;;;5115215;28;20464;-70
2022/07/10 11:50:37;;;;;;;0.60;0.30;;;24.30;1.00;;;;;;5116992;28;20474;-71
2022/07/10 11:53:05;;;;;;;0.40;0.30;;;24.30;1.00;;;;;;5112768;28;20522;-71
2022/07/10 11:55:36;;;;;;;0.50;0.30;;;24.20;1.00;;;;;;5114412;28;20461;-71
2022/07/10 11:58:14;;;;;;;1.27;0.30;;;23.90;1.00;;;;;;5116613;28;20456;-72
2022/07/10 12:00:41;;;;;;;0.50;0.30;;;24.30;1.00;;;;;;5114327;28;20950;-71
2022/07/10 12:03:27;;;;;;;0.90;0.30;;;25.00;1.00;;;;;;5115439;28;20456;-71
2022/07/10 12:05:54;;;;;;;1.70;0.30;;;25.30;1.00;;;;;;5115139;28;20444;-70
2022/07/10 12:08:21;;;;;;;1.63;0.30;;;25.00;1.00;;;;;;5116649;28;20872;-70
2022/07/10 12:10:48;;;;;;;0.60;0.30;;;24.30;1.00;;;;;;5115336;28;20453;-71
2022/07/10 12:13:16;;;;;;;0.57;0.30;;;23.70;1.00;;;;;;5117057;28;20802;-72
2022/07/10 12:15:44;;;;;;;1.17;0.30;;;23.30;1.00;;;;;;5115557;28;20509;-70
2022/07/10 12:18:19;;;;;;;0.97;0.30;;;23.20;1.00;;;;;;5114103;28;20443;-70
2022/07/10 12:20:49;;;;;;;0.50;0.23;;;23.70;1.00;;;;;;5114135;28;20507;-71
2022/07/10 12:23:16;;;;;;;0.60;0.20;;;24.00;1.00;;;;;;5115841;28;20805;-71
2022/07/10 12:25:44;;;;;;;0.70;0.30;;;24.10;1.00;;;;;;5116349;28;20477;-71
2022/07/10 12:28:11;;;;;;;0.30;0.20;;;24.20;1.00;;;;;;5116504;28;20513;-70
2022/07/10 12:30:42;;;;;;;0.40;0.20;;;24.10;1.00;;;;;;5115094;28;20445;-70
2022/07/10 12:33:15;;;;;;;3.33;0.20;;;24.50;1.00;;;;;;5115277;28;20456;-70
2022/07/10 12:35:52;;;;;;;0.37;0.20;;;25.00;1.00;;;;;;5115911;28;20982;-70
2022/07/10 12:38:20;;;;;;;0.40;0.23;;;25.20;1.00;;;;;;5116090;28;20460;-69
2022/07/10 12:40:47;;;;;;;0.40;0.20;;;24.70;1.00;;;;;;5116007;28;20448;-70
2022/07/10 12:43:25;;;;;;;0.50;0.20;;;25.20;1.00;;;;;;5115093;28;20453;-70
2022/07/10 12:46:14;;;;;;;0.30;0.20;;;25.20;1.00;;;;;;5115462;28;20447;-70
2022/07/10 12:48:44;;;;;;;0.53;0.20;;;25.10;1.00;;;;;;5113268;28;20567;-69
2022/07/10 12:51:26;;;;;;;0.50;0.20;;;25.30;1.00;;;;;;5113643;28;20432;-70
2022/07/10 12:53:53;;;;;;;0.70;0.30;;;25.70;1.00;;;;;;5113022;28;20476;-69
2022/07/10 12:56:35;;;;;;;1.20;0.30;;;26.10;1.00;;;;;;5112017;28;20527;-70
2022/07/10 12:59:04;;;;;;;0.50;0.20;;;25.90;1.00;;;;;;5114376;28;20551;-70
2022/07/10 13:01:42;;;;;;;0.37;0.20;;;26.00;1.00;;;;;;5113224;28;20485;-69
2022/07/10 13:04:09;;;;;;;0.40;0.20;;;26.10;1.00;;;;;;5115671;28;20453;-70
2022/07/10 13:06:39;;;;;;;0.90;0.30;;;26.00;1.00;;;;;;5115774;28;20539;-70
2022/07/10 13:09:20;;;;;;;0.53;0.20;;;25.20;1.00;;;;;;5115269;28;20808;-69
2022/07/10 13:11:47;;;;;;;0.50;0.20;;;25.30;1.00;;;;;;5115594;28;20444;-70
2022/07/10 13:14:14;;;;;;;4.50;0.20;;;25.10;1.00;;;;;;5115552;28;20569;-69
2022/07/10 13:16:41;;;;;;;0.43;0.30;;;24.10;1.00;;;;;;5114030;28;20901;-72
2022/07/10 13:19:09;;;;;;;2.70;0.40;;;24.50;1.00;;;;;;5114577;28;20452;-71